createdAt,value
2022-11-20T00:01:17.295Z,7.38
2022-11-20T00:03:44.122Z,12.90
2022-11-20T00:06:13.383Z,7.22
2022-11-20T00:08:40.740Z,14.30
2022-11-20T00:11:16.103Z,8.57
2022-11-20T00:13:48.162Z,7.38
2022-11-20T00:16:18.269Z,7.25
2022-11-20T00:18:45.805Z,30.25
2022-11-20T00:21:15.363Z,8.25
2022-11-20T00:23:42.844Z,8.50
2022-11-20T00:26:13.491Z,6.85
2022-11-20T00:28:40.963Z,9.48
2022-11-20T00:31:10.609Z,6.15
2022-11-20T00:33:37.749Z,4.32
2022-11-20T00:36:10.499Z,4.85
2022-11-20T00:38:37.636Z,6.45
2022-11-20T00:41:09.528Z,7.90
2022-11-20T00:43:38.209Z,6.57
2022-11-20T00:46:10.566Z,5.95
2022-11-20T00:48:37.605Z,7.70
2022-11-20T00:51:04.379Z,7.65
2022-11-20T00:53:31.398Z,6.25
2022-11-20T00:56:04.405Z,5.82
2022-11-20T00:58:34.687Z,18.10
2022-11-20T01:01:07.754Z,7.40
2022-11-20T01:03:36.658Z,4.90
2022-11-20T01:06:05.854Z,6.47
2022-11-20T01:08:34.173Z,22.10
2022-11-20T01:11:06.826Z,7.20
2022-11-20T01:13:40.348Z,10.73
2022-11-20T01:16:17.432Z,9.18
2022-11-20T01:18:46.895Z,4.75
2022-11-20T01:21:18.231Z,5.88
2022-11-20T01:23:45.613Z,6.40
2022-11-20T01:26:15.262Z,4.68
2022-11-20T01:28:42.704Z,8.75
2022-11-20T01:31:37.214Z,6.65
2022-11-20T01:34:10.563Z,8.27
2022-11-20T01:36:38.841Z,3.30
2022-11-20T01:39:08.350Z,5.88
2022-11-20T01:41:54.524Z,5.45
2022-11-20T01:44:42.966Z,4.82
2022-11-20T01:47:15.537Z,7.90
2022-11-20T01:49:57.877Z,16.85
2022-11-20T01:52:31.701Z,5.78
2022-11-20T01:55:16.122Z,6.03
2022-11-20T01:57:44.811Z,6.00
2022-11-20T02:00:14.644Z,4.13
2022-11-20T02:02:46.991Z,7.80
2022-11-20T02:05:36.578Z,10.18
2022-11-20T02:08:05.475Z,62.72
2022-11-20T02:10:33.206Z,10.07
2022-11-20T02:13:19.155Z,8.30
2022-11-20T02:15:46.449Z,11.05
2022-11-20T02:18:16.771Z,3.70
2022-11-20T02:20:46.234Z,4.07
2022-11-20T02:23:34.625Z,6.88
2022-11-20T02:26:05.201Z,6.30
2022-11-20T02:28:32.136Z,7.47
2022-11-20T02:30:58.845Z,6.60
2022-11-20T02:33:25.549Z,5.82
2022-11-20T02:36:00.015Z,6.85
2022-11-20T02:38:27.046Z,6.22
2022-11-20T02:40:55.744Z,5.72
2022-11-20T02:43:23.823Z,6.28
2022-11-20T02:45:50.904Z,12.63
2022-11-20T02:48:17.725Z,6.20
2022-11-20T02:50:44.536Z,6.10
2022-11-20T02:53:11.234Z,4.32
2022-11-20T02:55:38.020Z,7.82
2022-11-20T02:58:04.662Z,8.95
2022-11-20T03:00:31.766Z,3.20
2022-11-20T03:02:58.475Z,5.85
2022-11-20T03:05:25.104Z,2.42
2022-11-20T03:07:56.122Z,4.22
2022-11-20T03:10:22.782Z,6.43
2022-11-20T03:12:54.318Z,4.20
2022-11-20T03:15:21.025Z,5.97
2022-11-20T03:17:47.811Z,4.45
2022-11-20T03:20:14.513Z,5.78
2022-11-20T03:22:41.309Z,4.65
2022-11-20T03:25:08.354Z,6.97
2022-11-20T03:27:35.695Z,5.93
2022-11-20T03:30:02.548Z,3.40
2022-11-20T03:32:29.191Z,7.05
2022-11-20T03:34:55.792Z,6.30
2022-11-20T03:37:22.500Z,5.13
2022-11-20T03:39:49.137Z,4.68
2022-11-20T03:42:34.216Z,7.93
2022-11-20T03:45:00.850Z,5.47
2022-11-20T03:47:27.492Z,6.47
2022-11-20T03:49:54.747Z,5.35
2022-11-20T03:52:21.477Z,7.18
2022-11-20T03:54:48.366Z,11.45
2022-11-20T03:57:15.031Z,4.30
2022-11-20T03:59:41.670Z,5.68
2022-11-20T04:02:08.421Z,6.32
2022-11-20T04:04:35.092Z,10.65
2022-11-20T04:07:01.988Z,8.77
2022-11-20T04:09:28.780Z,7.35
2022-11-20T04:11:55.642Z,9.35
2022-11-20T04:14:22.295Z,6.78
2022-11-20T04:16:49.031Z,5.88
2022-11-20T04:19:17.421Z,10.65
2022-11-20T04:21:45.276Z,6.32
2022-11-20T04:24:12.722Z,6.60
2022-11-20T04:26:40.471Z,4.57
2022-11-20T04:29:10.687Z,4.32
2022-11-20T04:31:37.370Z,6.53
2022-11-20T04:34:07.300Z,5.55
2022-11-20T04:36:34.427Z,7.00
2022-11-20T04:39:04.241Z,4.55
2022-11-20T04:41:36.916Z,7.88
2022-11-20T04:44:06.793Z,5.20
2022-11-20T04:46:44.522Z,4.43
2022-11-20T04:49:12.521Z,5.97
2022-11-20T04:51:39.272Z,5.70
2022-11-20T04:54:05.926Z,4.72
2022-11-20T04:56:32.609Z,5.60
2022-11-20T04:59:03.250Z,4.10
2022-11-20T05:01:30.601Z,4.53
2022-11-20T05:03:57.346Z,5.57
2022-11-20T05:06:24.322Z,7.15
2022-11-20T05:08:51.369Z,5.43
2022-11-20T05:11:21.086Z,6.70
2022-11-20T05:13:48.486Z,4.25
2022-11-20T05:16:26.381Z,7.43
2022-11-20T05:18:55.328Z,5.28
2022-11-20T05:21:22.721Z,5.60
2022-11-20T05:23:49.829Z,4.57
2022-11-20T05:26:25.425Z,3.95
2022-11-20T05:28:52.629Z,5.40
2022-11-20T05:31:26.644Z,4.57
2022-11-20T05:33:55.751Z,9.23
2022-11-20T05:36:22.444Z,6.60
2022-11-20T05:38:51.069Z,4.72
2022-11-20T05:41:20.857Z,6.07
2022-11-20T05:43:49.001Z,4.82
2022-11-20T05:46:18.960Z,5.25
2022-11-20T05:48:47.654Z,7.68
2022-11-20T05:51:17.738Z,4.80
2022-11-20T05:53:48.252Z,5.60
2022-11-20T05:56:21.248Z,4.03
2022-11-20T05:58:48.186Z,4.47
2022-11-20T06:01:21.299Z,10.02
2022-11-20T06:03:48.867Z,13.43
2022-11-20T06:06:16.987Z,6.07
2022-11-20T06:08:44.112Z,14.60
2022-11-20T06:11:13.685Z,7.18
2022-11-20T06:13:42.305Z,7.40
2022-11-20T06:16:10.627Z,8.40
2022-11-20T06:18:37.620Z,10.35
2022-11-20T06:21:07.629Z,12.35
2022-11-20T06:23:35.739Z,6.65
2022-11-20T06:26:04.701Z,9.20
2022-11-20T06:28:31.552Z,6.80
2022-11-20T06:30:58.835Z,6.05
2022-11-20T06:33:25.830Z,4.55
2022-11-20T06:35:58.453Z,5.60
2022-11-20T06:38:27.838Z,6.32
2022-11-20T06:40:55.379Z,7.38
2022-11-20T06:43:22.656Z,8.23
2022-11-20T06:45:57.440Z,7.82
2022-11-20T06:48:24.945Z,6.65
2022-11-20T06:50:51.569Z,5.75
2022-11-20T07:02:33.391Z,7.00
2022-11-20T07:05:00.298Z,6.97
2022-11-20T07:07:27.013Z,8.80
2022-11-20T07:09:53.667Z,8.57
2022-11-20T07:12:20.378Z,8.45
2022-11-20T07:14:47.197Z,4.55
2022-11-20T07:17:14.073Z,9.75
2022-11-20T07:19:40.711Z,6.90
2022-11-20T07:22:07.374Z,6.97
2022-11-20T07:24:34.053Z,8.93
2022-11-20T07:27:00.713Z,7.30
2022-11-20T07:55:50.203Z,8.65
2022-11-20T07:58:35.581Z,11.25
2022-11-20T08:01:21.552Z,7.10
2022-11-20T08:03:48.317Z,5.75
2022-11-20T08:06:15.821Z,8.50
2022-11-20T08:08:43.183Z,9.40
2022-11-20T08:11:28.920Z,14.13
2022-11-20T08:14:14.313Z,8.80
2022-11-20T08:19:08.592Z,8.60
2022-11-20T08:21:38.326Z,8.65
2022-11-20T08:24:05.999Z,10.77
2022-11-20T08:26:32.688Z,10.77
2022-11-20T08:29:06.663Z,10.10
2022-11-20T08:31:33.864Z,11.60
2022-11-20T08:34:00.519Z,9.90
2022-11-20T08:36:27.189Z,13.77
2022-11-20T08:38:56.140Z,9.85
2022-11-20T08:41:29.530Z,11.60
2022-11-20T08:44:08.029Z,9.18
2022-11-20T08:46:39.649Z,12.10
2022-11-20T08:49:07.680Z,10.00
2022-11-20T08:51:34.403Z,11.20
2022-11-20T08:54:01.480Z,10.10
2022-11-20T08:56:29.052Z,15.23
2022-11-20T08:59:20.162Z,11.57
2022-11-20T09:01:42.611Z,15.70
2022-11-20T09:04:09.383Z,17.08
2022-11-20T09:06:36.094Z,8.82
2022-11-20T09:09:06.656Z,7.88
2022-11-20T09:11:33.884Z,8.88
2022-11-20T09:14:01.234Z,8.52
2022-11-20T09:16:28.255Z,9.10
2022-11-20T09:19:20.200Z,9.82
2022-11-20T09:21:48.856Z,9.95
2022-11-20T09:24:15.544Z,11.85
2022-11-20T09:26:42.163Z,9.73
2022-11-20T09:29:08.840Z,12.43
2022-11-20T09:31:35.553Z,14.18
2022-11-20T09:34:02.162Z,9.27
2022-11-20T09:36:28.888Z,10.90
2022-11-20T09:38:57.373Z,12.63
2022-11-20T09:41:51.279Z,14.27
2022-11-20T09:44:35.991Z,13.95
2022-11-20T09:47:18.062Z,18.60
2022-11-20T09:50:25.961Z,12.75
2022-11-20T09:53:06.087Z,16.02
2022-11-20T09:55:33.180Z,14.18
2022-11-20T09:58:00.923Z,10.98
2022-11-20T10:00:29.351Z,16.05
2022-11-20T10:03:18.638Z,19.02
2022-11-20T10:05:55.972Z,19.42
2022-11-20T10:08:37.332Z,9.50
2022-11-20T10:11:32.386Z,12.20
2022-11-20T10:14:17.671Z,12.20
2022-11-20T10:17:12.105Z,13.05
2022-11-20T10:20:01.635Z,10.88
2022-11-20T10:22:43.575Z,20.55
2022-11-20T10:25:17.191Z,18.15
2022-11-20T10:28:14.709Z,10.07
2022-11-20T10:30:47.326Z,14.60
2022-11-20T10:33:22.295Z,12.27
2022-11-20T10:38:24.656Z,13.30
2022-11-20T10:41:21.410Z,11.50
2022-11-20T10:43:51.777Z,11.25
2022-11-20T10:46:23.133Z,16.30
2022-11-20T10:48:50.966Z,16.83
2022-11-20T10:51:43.725Z,12.77
2022-11-20T10:54:30.302Z,13.13
2022-11-20T10:57:21.788Z,17.73
2022-11-20T11:00:03.674Z,11.15
2022-11-20T11:02:48.380Z,16.55
2022-11-20T11:05:37.388Z,12.18
2022-11-20T11:08:11.441Z,13.18
2022-11-20T11:11:00.036Z,30.63
2022-11-20T11:13:29.540Z,14.05
2022-11-20T11:15:56.840Z,17.30
2022-11-20T11:18:32.991Z,16.35
2022-11-20T11:21:03.832Z,13.23
2022-11-20T11:23:30.792Z,11.52
2022-11-20T11:26:00.142Z,12.30
2022-11-20T11:28:28.902Z,13.25
2022-11-20T11:30:56.857Z,13.32
2022-11-20T11:33:29.721Z,14.43
2022-11-20T11:36:01.755Z,13.00
2022-11-20T11:38:45.020Z,15.80
2022-11-20T11:41:22.057Z,16.48
2022-11-20T11:44:14.070Z,18.52
2022-11-20T11:46:50.453Z,15.10
2022-11-20T11:49:21.268Z,17.65
2022-11-20T11:51:48.286Z,18.30
2022-11-20T11:54:29.951Z,19.38
2022-11-20T11:57:00.143Z,14.43
2022-11-20T11:59:55.966Z,12.52
2022-11-20T12:05:24.317Z,15.75
2022-11-20T12:07:59.755Z,17.80
2022-11-20T12:10:36.009Z,17.98
2022-11-20T12:13:13.804Z,15.52
2022-11-20T12:15:45.627Z,15.90
2022-11-20T12:18:18.703Z,16.77
2022-11-20T12:21:22.793Z,14.82
2022-11-20T12:24:08.208Z,16.05
2022-11-20T12:29:59.533Z,13.35
2022-11-20T12:32:40.060Z,18.40
2022-11-20T12:35:45.350Z,14.82
2022-11-20T12:38:33.405Z,19.23
2022-11-20T12:41:02.940Z,16.25
2022-11-20T12:43:54.031Z,17.90
2022-11-20T12:46:23.431Z,12.30
2022-11-20T12:48:58.983Z,11.95
2022-11-20T12:52:04.054Z,16.45
2022-11-20T12:54:30.707Z,17.20
2022-11-20T12:57:16.032Z,19.98
2022-11-20T13:02:38.871Z,13.57
2022-11-20T13:05:50.223Z,16.05
2022-11-20T13:08:30.534Z,12.77
2022-11-20T13:11:17.940Z,14.55
2022-11-20T13:14:24.665Z,13.85
2022-11-20T13:17:10.104Z,12.05
2022-11-20T13:19:37.187Z,14.27
2022-11-20T13:22:04.187Z,15.32
2022-11-20T13:24:32.986Z,13.70
2022-11-20T13:27:03.873Z,17.70
2022-11-20T13:29:31.056Z,18.50
2022-11-20T13:32:08.164Z,19.02
2022-11-20T13:34:37.953Z,18.38
2022-11-20T13:37:07.779Z,14.15
2022-11-20T13:39:36.265Z,19.67
2022-11-20T13:42:12.363Z,13.90
2022-11-20T13:44:43.133Z,17.75
2022-11-20T13:47:25.251Z,12.52
2022-11-20T13:49:55.390Z,12.38
2022-11-20T13:52:47.715Z,17.10
2022-11-20T13:55:44.192Z,16.00
2022-11-20T13:58:52.519Z,11.23
2022-11-20T14:01:32.488Z,17.50
2022-11-20T14:04:06.164Z,18.10
2022-11-20T14:06:39.722Z,21.80
2022-11-20T14:09:06.473Z,16.17
2022-11-20T14:11:33.175Z,12.60
2022-11-20T14:14:16.456Z,15.85
2022-11-20T14:16:45.335Z,14.50
2022-11-20T14:19:17.801Z,15.80
2022-11-20T14:21:44.459Z,19.15
2022-11-20T14:24:13.425Z,20.20
2022-11-20T14:26:47.025Z,15.63
2022-11-20T14:29:19.067Z,14.45
2022-11-20T14:31:52.656Z,11.70
2022-11-20T14:34:25.726Z,12.73
2022-11-20T14:36:58.445Z,11.00
2022-11-20T14:39:43.327Z,11.73
2022-11-20T14:42:28.333Z,12.95
2022-11-20T14:45:00.411Z,10.30
2022-11-20T14:47:30.396Z,12.23
2022-11-20T14:49:59.591Z,12.27
2022-11-20T14:52:28.983Z,14.82
2022-11-20T14:54:57.933Z,24.17
2022-11-20T14:57:29.464Z,26.70
2022-11-20T15:00:11.430Z,19.27
2022-11-20T15:02:46.404Z,22.63
2022-11-20T15:05:14.543Z,23.35
2022-11-20T15:07:46.997Z,21.05
2022-11-20T15:10:19.591Z,32.42
2022-11-20T15:12:58.031Z,167.80
2022-11-20T15:15:31.271Z,31.90
2022-11-20T15:17:59.220Z,11.00
2022-11-20T15:20:29.692Z,12.07
2022-11-20T15:22:56.373Z,19.17
2022-11-20T15:25:25.597Z,51.92
2022-11-20T15:27:57.856Z,22.95
2022-11-20T15:30:25.538Z,28.83
2022-11-20T15:32:52.391Z,24.55
2022-11-20T15:35:19.168Z,23.80
2022-11-20T15:37:45.911Z,29.45
2022-11-20T15:40:13.458Z,31.80
2022-11-20T15:43:00.159Z,42.65
2022-11-20T15:45:29.222Z,20.17
2022-11-20T15:47:56.022Z,54.28
2022-11-20T15:50:26.965Z,47.03
2022-11-20T15:52:53.630Z,25.92
2022-11-20T15:55:20.302Z,19.05
2022-11-20T15:57:47.014Z,32.95
2022-11-20T16:00:16.180Z,23.10
2022-11-20T16:02:44.833Z,16.10
2022-11-20T16:05:13.327Z,27.73
2022-11-20T16:07:40.081Z,28.23
2022-11-20T16:10:07.302Z,27.58
2022-11-20T16:12:52.632Z,36.22
2022-11-20T16:15:37.996Z,39.35
2022-11-20T16:18:04.826Z,39.95
2022-11-20T16:20:31.530Z,39.58
2022-11-20T16:22:58.182Z,39.00
2022-11-20T16:25:24.835Z,65.20
2022-11-20T16:27:51.596Z,14.50
2022-11-20T16:30:18.456Z,14.95
2022-11-20T16:32:45.358Z,30.20
2022-11-20T16:35:12.355Z,26.73
2022-11-20T16:37:39.730Z,32.35
2022-11-20T16:40:07.406Z,36.05
2022-11-20T16:42:35.486Z,42.00
2022-11-20T16:45:02.221Z,32.45
2022-11-20T16:47:28.926Z,37.78
2022-11-20T16:49:56.087Z,24.40
2022-11-20T16:52:22.737Z,28.52
2022-11-20T16:54:49.667Z,30.80
2022-11-20T16:57:16.361Z,34.53
2022-11-20T16:59:43.375Z,50.10
2022-11-20T17:02:10.692Z,52.20
2022-11-20T17:04:37.715Z,33.50
2022-11-20T17:07:08.020Z,25.45
2022-11-20T17:09:34.956Z,25.17
2022-11-20T17:12:01.783Z,29.67
2022-11-20T17:14:28.550Z,43.20
2022-11-20T17:16:55.605Z,47.17
2022-11-20T17:19:22.344Z,38.95
2022-11-20T17:21:49.760Z,56.20
2022-11-20T17:24:16.563Z,57.25
2022-11-20T17:26:44.727Z,52.17
2022-11-20T17:29:14.150Z,46.28
2022-11-20T17:31:41.654Z,51.47
2022-11-20T17:34:11.474Z,46.90
2022-11-20T17:36:44.827Z,37.25
2022-11-20T17:39:16.495Z,45.90
2022-11-20T17:41:44.197Z,42.85
2022-11-20T17:44:11.934Z,48.60
2022-11-20T17:46:38.558Z,45.05
2022-11-20T17:49:05.343Z,71.47
2022-11-20T17:51:35.001Z,54.72
2022-11-20T17:54:05.192Z,44.30
2022-11-20T17:56:52.508Z,44.40
2022-11-20T17:59:19.395Z,35.10
2022-11-20T18:01:46.509Z,33.25
2022-11-20T18:04:13.394Z,42.05
2022-11-20T18:06:40.866Z,51.53
2022-11-20T18:09:07.947Z,46.15
2022-11-20T18:11:37.103Z,44.63
2022-11-20T18:14:25.912Z,44.17
2022-11-20T18:16:55.601Z,51.65
2022-11-20T18:19:27.609Z,49.78
2022-11-20T18:21:56.879Z,56.35
2022-11-20T18:24:23.764Z,61.35
2022-11-20T18:26:50.580Z,54.65
2022-11-20T18:29:17.661Z,54.80
2022-11-20T18:31:44.405Z,53.17
2022-11-20T18:34:14.131Z,62.65
2022-11-20T18:36:42.647Z,56.60
2022-11-20T18:39:12.200Z,55.17
2022-11-20T18:41:58.008Z,86.00
2022-11-20T18:44:46.528Z,99.75
2022-11-20T18:47:16.084Z,70.35
2022-11-20T18:49:46.328Z,62.88
2022-11-20T18:52:13.717Z,44.75
2022-11-20T18:54:40.493Z,67.40
2022-11-20T18:57:07.847Z,61.75
2022-11-20T18:59:34.524Z,50.65
2022-11-20T19:02:01.351Z,52.42
2022-11-20T19:04:29.654Z,53.25
2022-11-20T19:06:56.425Z,48.38
2022-11-20T19:09:24.345Z,47.65
2022-11-20T19:11:52.193Z,46.05
2022-11-20T19:14:19.191Z,45.30
2022-11-20T19:16:46.355Z,50.50
2022-11-20T19:19:12.963Z,50.53
2022-11-20T19:21:39.725Z,49.78
2022-11-20T19:24:06.520Z,58.42
2022-11-20T19:26:36.137Z,40.90
2022-11-20T19:29:04.471Z,39.00
2022-11-20T19:31:31.494Z,36.22
2022-11-20T19:34:00.888Z,33.55
2022-11-20T19:36:33.237Z,34.70
2022-11-20T19:39:00.858Z,33.67
2022-11-20T19:41:30.448Z,47.13
2022-11-20T19:44:08.449Z,38.25
2022-11-20T19:46:36.516Z,39.45
2022-11-20T19:49:04.339Z,40.30
2022-11-20T19:51:34.212Z,48.33
2022-11-20T19:54:01.869Z,128.88
2022-11-20T19:56:30.354Z,52.10
2022-11-20T19:58:57.692Z,59.42
2022-11-20T20:01:30.122Z,60.92
2022-11-20T20:04:02.495Z,59.67
2022-11-20T20:06:29.817Z,50.28
2022-11-20T20:09:05.896Z,55.00
2022-11-20T20:11:34.346Z,54.85
2022-11-20T20:14:06.815Z,57.50
2022-11-20T20:16:34.402Z,54.97
2022-11-20T20:19:03.256Z,50.97
2022-11-20T20:21:31.810Z,47.63
2022-11-20T20:23:59.140Z,46.75
2022-11-20T20:26:28.599Z,48.47
2022-11-20T20:28:55.740Z,43.90
2022-11-20T20:31:25.062Z,39.20
2022-11-20T20:33:52.033Z,48.03
2022-11-20T20:36:21.866Z,52.58
2022-11-20T20:38:55.925Z,47.55
2022-11-20T20:41:25.114Z,49.33
2022-11-20T20:44:11.381Z,42.92
2022-11-20T20:46:39.597Z,43.88
2022-11-20T20:49:07.453Z,27.60
2022-11-20T20:51:35.049Z,14.48
2022-11-20T20:54:01.910Z,24.08
2022-11-20T20:56:28.653Z,55.75
2022-11-20T20:58:55.287Z,45.90
2022-11-20T21:01:23.131Z,21.52
2022-11-20T21:03:50.110Z,31.65
2022-11-20T21:06:17.010Z,16.10
2022-11-20T21:08:44.580Z,31.73
2022-11-20T21:11:14.265Z,21.83
2022-11-20T21:13:43.000Z,18.90
2022-11-20T21:16:10.846Z,14.30
2022-11-20T21:18:37.885Z,11.85
2022-11-20T21:21:44.801Z,9.32
2022-11-20T21:24:11.450Z,12.93
2022-11-20T21:26:38.470Z,20.13
2022-11-20T21:29:05.084Z,8.77
2022-11-20T21:31:31.859Z,9.30
2022-11-20T21:33:58.827Z,11.32
2022-11-20T21:36:30.339Z,11.18
2022-11-20T21:38:59.482Z,7.63
2022-11-20T21:41:30.335Z,20.55
2022-11-20T21:46:46.388Z,12.48
2022-11-20T21:49:14.643Z,8.93
2022-11-20T21:51:41.831Z,10.10
2022-11-20T21:54:10.762Z,11.85
2022-11-20T21:56:37.437Z,11.95
2022-11-20T21:59:04.041Z,13.02
2022-11-20T22:01:31.390Z,11.93
2022-11-20T22:04:02.374Z,16.33
2022-11-20T22:06:33.992Z,8.35
2022-11-20T22:09:01.417Z,10.90
2022-11-20T22:11:28.494Z,12.50
2022-11-20T22:14:13.667Z,7.43
2022-11-20T22:16:40.458Z,12.05
2022-11-20T22:19:07.148Z,14.30
2022-11-20T22:21:35.248Z,7.32
2022-11-20T22:24:02.116Z,14.02
2022-11-20T22:26:33.905Z,9.10
2022-11-20T22:29:04.451Z,7.60
2022-11-20T22:31:31.874Z,11.75
2022-11-20T22:34:01.135Z,7.65
2022-11-20T22:36:29.661Z,8.60
2022-11-20T22:38:56.880Z,9.75
2022-11-20T22:41:27.243Z,11.43
2022-11-20T22:43:56.728Z,9.95
2022-11-20T22:46:25.011Z,9.82
2022-11-20T22:48:57.052Z,13.63
2022-11-20T22:51:35.327Z,14.43
2022-11-20T22:54:03.623Z,13.65
2022-11-20T22:56:31.148Z,10.95
2022-11-20T22:58:58.236Z,10.98
2022-11-20T23:01:33.466Z,11.20
2022-11-20T23:04:03.349Z,11.20
2022-11-20T23:06:30.839Z,16.23
2022-11-20T23:08:57.519Z,9.02
2022-11-20T23:11:27.427Z,15.65
2022-11-20T23:13:57.613Z,12.40
2022-11-20T23:16:26.208Z,9.80
2022-11-20T23:18:58.680Z,10.88
2022-11-20T23:21:26.178Z,10.32
2022-11-20T23:23:55.742Z,9.73
2022-11-20T23:26:25.061Z,14.40
2022-11-20T23:28:54.139Z,9.75
2022-11-20T23:31:21.270Z,9.70
2022-11-20T23:33:47.919Z,11.82
2022-11-20T23:36:15.197Z,10.52
2022-11-20T23:38:42.433Z,7.38
2022-11-20T23:41:09.247Z,11.90
2022-11-20T23:43:36.019Z,11.18
2022-11-20T23:46:03.984Z,12.05
2022-11-20T23:48:33.819Z,9.77
2022-11-20T23:51:00.933Z,10.10
2022-11-20T23:53:30.154Z,9.85
2022-11-20T23:55:59.497Z,12.25
2022-11-20T23:58:33.991Z,10.80
